Time;durP1;ratioP1;P1;durP2;ratioP2;P2;SDS_P1;SDS_P2;PMS_P1;PMS_P2;Temp;Humidity;BMP_temperature;BMP_pressure;BME280_temperature;BME280_humidity;BME280_pressure;Samples;Min_cycle;Max_cycle;Signal;HPM_P1;HPM_P2
2021/05/17 00:02:21;;;;;;;3.17;2.60;;;10.30;99.90;;;;;;5015810;28;20203;-86
2021/05/17 00:04:48;;;;;;;1.90;1.70;;;10.30;99.90;;;;;;5008287;28;20205;-87
2021/05/17 00:07:14;;;;;;;2.03;1.73;;;10.30;99.90;;;;;;5033876;28;20210;-86
2021/05/17 00:09:41;;;;;;;4.70;2.17;;;10.30;99.90;;;;;;5029043;28;20259;-86
2021/05/17 00:12:07;;;;;;;2.53;2.07;;;10.30;99.90;;;;;;5035109;28;20212;-86
2021/05/17 00:14:34;;;;;;;2.30;1.93;;;10.30;99.90;;;;;;5016866;28;20270;-88
2021/05/17 00:17:00;;;;;;;4.53;2.30;;;10.30;99.90;;;;;;5017753;28;20188;-87
2021/05/17 00:19:25;;;;;;;3.07;2.13;;;10.20;99.90;;;;;;5016415;28;20197;-87
2021/05/17 00:21:51;;;;;;;4.27;2.20;;;10.20;99.90;;;;;;5022997;28;20185;-87
2021/05/17 00:24:19;;;;;;;2.27;1.93;;;10.20;99.90;;;;;;5017329;28;20198;-86
2021/05/17 00:26:45;;;;;;;3.87;2.40;;;10.20;99.90;;;;;;5029858;28;20191;-86
2021/05/17 00:29:11;;;;;;;2.27;1.73;;;10.20;99.90;;;;;;5033028;28;20256;-85
2021/05/17 00:31:38;;;;;;;2.80;2.07;;;10.10;99.90;;;;;;5016075;28;20324;-85
2021/05/17 00:34:06;;;;;;;2.93;2.13;;;10.10;99.90;;;;;;5015821;28;20788;-85
2021/05/17 00:36:32;;;;;;;2.97;2.20;;;10.10;99.90;;;;;;5016015;28;20195;-86
2021/05/17 00:39:00;;;;;;;1.97;1.77;;;10.20;99.90;;;;;;5008712;28;20196;-86
2021/05/17 00:41:29;;;;;;;3.10;2.23;;;10.00;99.90;;;;;;5017716;28;20191;-86
2021/05/17 00:43:56;;;;;;;2.77;2.40;;;10.00;99.90;;;;;;5015493;28;20602;-86
2021/05/17 00:46:24;;;;;;;3.23;2.70;;;10.00;99.90;;;;;;5015003;28;20197;-87
2021/05/17 00:48:50;;;;;;;3.87;2.50;;;10.00;99.90;;;;;;5013871;28;20193;-86
2021/05/17 00:51:16;;;;;;;3.40;2.77;;;10.00;99.90;;;;;;5018965;28;20215;-86
2021/05/17 00:53:42;;;;;;;2.87;2.53;;;10.00;99.90;;;;;;5018781;28;20201;-86
2021/05/17 00:56:08;;;;;;;3.50;2.93;;;10.00;99.90;;;;;;5012230;28;20223;-86
2021/05/17 00:58:34;;;;;;;3.97;2.63;;;9.90;99.90;;;;;;5016792;28;20471;-85
2021/05/17 01:01:01;;;;;;;3.87;2.13;;;9.90;99.90;;;;;;5016196;28;20600;-85
2021/05/17 01:03:27;;;;;;;3.70;2.30;;;9.90;99.90;;;;;;5029442;28;20202;-86
2021/05/17 01:05:54;;;;;;;3.73;2.07;;;9.90;99.90;;;;;;5016202;28;20258;-85
2021/05/17 01:08:40;;;;;;;2.50;1.93;;;9.80;99.90;;;;;;5018448;28;20231;-86
2021/05/17 01:11:06;;;;;;;4.27;2.13;;;9.90;99.90;;;;;;5019837;28;20305;-85
2021/05/17 01:13:32;;;;;;;3.60;2.30;;;9.80;99.90;;;;;;5013686;28;20216;-86
2021/05/17 01:16:00;;;;;;;2.43;2.10;;;9.80;99.90;;;;;;5025168;28;20198;-85
2021/05/17 01:18:27;;;;;;;4.40;2.53;;;9.70;99.90;;;;;;5016508;28;20192;-86
2021/05/17 01:20:56;;;;;;;3.47;2.00;;;9.80;99.90;;;;;;5018472;28;20195;-86
2021/05/17 01:25:55;;;;;;;3.67;2.10;;;9.80;99.90;;;;;;5039289;28;20694;-85
2021/05/17 01:28:23;;;;;;;1.70;1.60;;;9.80;99.90;;;;;;5021024;28;20191;-85
2021/05/17 01:30:51;;;;;;;1.87;1.13;;;9.80;99.90;;;;;;5015336;28;20223;-86
2021/05/17 01:33:16;;;;;;;2.87;1.50;;;9.80;99.90;;;;;;5036167;28;20215;-86
2021/05/17 01:35:44;;;;;;;1.50;1.30;;;9.80;99.90;;;;;;5020552;28;20198;-86
2021/05/17 01:38:14;;;;;;;1.87;1.53;;;9.70;99.90;;;;;;5019346;28;20268;-86
2021/05/17 01:40:44;;;;;;;2.27;1.67;;;9.70;99.90;;;;;;5017897;28;20247;-86
2021/05/17 01:43:11;;;;;;;3.40;1.90;;;9.70;99.90;;;;;;5020233;28;20202;-86
2021/05/17 01:45:38;;;;;;;3.07;1.77;;;9.80;99.90;;;;;;5012998;28;20211;-86
2021/05/17 01:48:04;;;;;;;4.87;2.10;;;9.80;99.90;;;;;;5011920;28;20188;-87
2021/05/17 01:50:30;;;;;;;2.27;2.07;;;9.80;99.90;;;;;;5018483;28;20226;-85
2021/05/17 01:52:57;;;;;;;3.63;1.67;;;9.80;99.90;;;;;;5021464;28;20218;-85
2021/05/17 01:55:24;;;;;;;2.30;1.50;;;9.80;99.90;;;;;;5020502;28;20194;-86
2021/05/17 01:58:23;;;;;;;2.93;1.43;;;9.90;99.90;;;;;;5031130;28;20201;-84
2021/05/17 02:00:50;;;;;;;1.63;1.40;;;9.90;99.90;;;;;;5019319;28;20195;-83
2021/05/17 02:03:15;;;;;;;1.63;1.47;;;9.90;99.90;;;;;;5020786;28;20219;-83
2021/05/17 02:05:41;;;;;;;3.13;1.60;;;9.90;99.90;;;;;;5019976;28;20194;-84
2021/05/17 02:08:11;;;;;;;3.23;1.40;;;9.90;99.90;;;;;;5016225;28;20214;-84
2021/05/17 02:10:39;;;;;;;3.97;1.77;;;9.80;99.90;;;;;;5020672;28;20637;-83
2021/05/17 02:13:07;;;;;;;1.87;1.20;;;9.90;99.90;;;;;;5012720;28;20198;-83
2021/05/17 02:15:35;;;;;;;1.40;1.13;;;9.90;99.90;;;;;;5019091;28;20523;-83
2021/05/17 02:18:07;;;;;;;1.23;1.10;;;9.80;99.90;;;;;;5021203;28;20213;-84
2021/05/17 02:20:36;;;;;;;1.40;1.20;;;9.80;99.90;;;;;;5036329;28;20274;-84
2021/05/17 02:23:02;;;;;;;1.20;1.10;;;9.80;99.90;;;;;;5020677;28;20208;-84
2021/05/17 02:25:29;;;;;;;1.50;1.17;;;9.80;99.90;;;;;;5017720;28;20201;-84
2021/05/17 02:27:56;;;;;;;2.00;1.20;;;9.80;99.90;;;;;;5024726;28;20198;-83
2021/05/17 02:30:23;;;;;;;2.37;1.23;;;9.80;99.90;;;;;;5017047;28;20210;-84
2021/05/17 02:32:49;;;;;;;1.83;1.20;;;9.80;99.90;;;;;;5028733;28;20225;-83
2021/05/17 02:35:15;;;;;;;4.00;1.33;;;9.70;99.90;;;;;;5017075;28;20187;-84
2021/05/17 02:37:41;;;;;;;1.30;1.20;;;9.70;99.90;;;;;;5017462;28;20191;-84
2021/05/17 02:40:07;;;;;;;1.43;1.27;;;9.70;99.90;;;;;;5017620;28;20215;-84
2021/05/17 02:42:34;;;;;;;0.97;0.90;;;9.80;99.90;;;;;;5015856;28;20574;-83
2021/05/17 02:45:07;;;;;;;1.10;1.00;;;9.80;99.90;;;;;;5014617;28;20203;-84
2021/05/17 02:47:37;;;;;;;1.80;1.30;;;9.80;99.90;;;;;;5018948;28;20199;-84
2021/05/17 02:50:05;;;;;;;2.87;1.10;;;9.80;99.90;;;;;;5019674;28;20217;-83
2021/05/17 02:52:31;;;;;;;1.93;1.10;;;9.80;99.90;;;;;;5015823;28;20188;-83
2021/05/17 02:55:14;;;;;;;1.60;1.50;;;9.80;99.90;;;;;;5016731;28;20184;-84
2021/05/17 02:57:41;;;;;;;1.27;1.17;;;9.70;99.90;;;;;;5005036;28;20198;-84
2021/05/17 03:00:18;;;;;;;1.23;1.00;;;9.80;99.90;;;;;;5019418;28;20198;-83
2021/05/17 03:02:51;;;;;;;1.23;1.13;;;9.70;99.90;;;;;;5014930;28;20261;-83
2021/05/17 03:05:17;;;;;;;1.33;1.23;;;9.70;99.90;;;;;;5031935;28;20196;-84
2021/05/17 03:07:47;;;;;;;1.37;1.07;;;9.70;99.90;;;;;;5022553;28;20203;-83
2021/05/17 03:10:14;;;;;;;1.60;1.30;;;11.60;99.90;;;;;;5036359;28;20270;-83
2021/05/17 03:12:41;;;;;;;1.73;1.10;;;9.70;99.90;;;;;;5018361;28;20200;-84
2021/05/17 03:15:07;;;;;;;1.17;1.00;;;12.30;99.90;;;;;;5032183;28;20191;-84
2021/05/17 03:17:35;;;;;;;1.30;1.20;;;9.80;99.90;;;;;;5019623;28;20643;-83
2021/05/17 03:20:01;;;;;;;1.30;1.20;;;9.80;99.90;;;;;;5019347;28;20236;-84
2021/05/17 03:22:30;;;;;;;1.00;0.90;;;9.80;99.90;;;;;;5019306;28;20194;-83
2021/05/17 03:24:57;;;;;;;2.20;1.20;;;9.80;99.90;;;;;;5013663;28;20299;-84
2021/05/17 03:27:25;;;;;;;1.70;1.10;;;9.80;99.90;;;;;;5021609;28;20183;-84
2021/05/17 03:29:52;;;;;;;2.23;1.23;;;10.00;99.90;;;;;;5018108;28;20231;-85
2021/05/17 03:32:18;;;;;;;1.57;1.27;;;9.90;99.90;;;;;;5041002;28;20197;-84
2021/05/17 03:34:43;;;;;;;2.33;1.17;;;9.90;99.90;;;;;;5012195;28;20209;-84
2021/05/17 03:37:09;;;;;;;2.03;1.43;;;9.90;99.90;;;;;;5016175;28;20658;-84
2021/05/17 03:39:35;;;;;;;1.83;1.20;;;9.90;99.90;;;;;;5018027;28;20195;-84
2021/05/17 03:42:01;;;;;;;1.87;1.40;;;9.90;99.90;;;;;;5015656;28;20234;-84
2021/05/17 03:44:27;;;;;;;1.60;1.50;;;9.90;99.90;;;;;;5032508;28;20280;-83
2021/05/17 03:46:53;;;;;;;3.10;2.00;;;10.00;99.90;;;;;;5019834;28;20211;-85
2021/05/17 03:49:22;;;;;;;3.17;1.40;;;10.00;99.90;;;;;;5024509;28;20655;-83
2021/05/17 03:51:48;;;;;;;4.13;1.93;;;9.90;99.90;;;;;;5016775;28;20218;-84
2021/05/17 03:54:14;;;;;;;4.20;2.10;;;9.90;99.90;;;;;;5018466;28;20191;-83
2021/05/17 03:56:39;;;;;;;4.13;2.07;;;10.20;99.90;;;;;;5020422;28;20207;-83
2021/05/17 03:59:05;;;;;;;3.70;2.10;;;10.00;99.90;;;;;;5018584;28;20199;-84
2021/05/17 04:01:31;;;;;;;4.90;2.00;;;10.10;99.90;;;;;;5020293;28;20515;-84
2021/05/17 04:03:57;;;;;;;2.30;1.90;;;10.00;99.90;;;;;;5012500;28;20219;-83
2021/05/17 04:14:16;;;;;;;1.80;1.60;;;10.20;99.90;;;;;;5031565;28;20230;-83
2021/05/17 04:16:42;;;;;;;2.67;1.80;;;10.30;99.90;;;;;;5020568;28;20187;-84
2021/05/17 04:19:08;;;;;;;2.90;1.80;;;10.30;99.90;;;;;;5015669;28;20191;-84
2021/05/17 04:21:33;;;;;;;3.63;2.23;;;10.30;99.90;;;;;;5021230;28;20182;-84
2021/05/17 04:23:59;;;;;;;3.23;1.87;;;10.30;99.90;;;;;;5015823;28;20619;-84
2021/05/17 04:26:25;;;;;;;1.77;1.67;;;10.40;99.90;;;;;;5021483;28;20201;-83
2021/05/17 04:28:50;;;;;;;3.07;2.30;;;10.30;99.90;;;;;;5020372;28;20202;-83
2021/05/17 04:31:16;;;;;;;2.00;1.80;;;10.40;99.90;;;;;;5019721;28;20205;-84
2021/05/17 04:33:42;;;;;;;2.73;1.90;;;10.40;99.90;;;;;;5014303;28;20546;-83
2021/05/17 04:36:07;;;;;;;4.97;2.00;;;10.40;99.90;;;;;;5020376;28;20193;-83
2021/05/17 04:38:33;;;;;;;3.70;2.33;;;10.40;99.90;;;;;;5016332;28;20198;-83
2021/05/17 04:40:58;;;;;;;2.07;1.80;;;10.40;99.90;;;;;;5017191;28;20244;-84
2021/05/17 04:43:24;;;;;;;2.63;2.00;;;10.50;99.90;;;;;;5019520;28;20582;-84
2021/05/17 04:45:50;;;;;;;3.33;1.87;;;10.50;99.90;;;;;;5022991;28;20299;-83
2021/05/17 04:48:16;;;;;;;3.00;2.70;;;10.60;99.90;;;;;;5035952;28;20187;-84
2021/05/17 04:50:41;;;;;;;2.17;1.77;;;10.50;99.90;;;;;;5014933;28;20217;-84
2021/05/17 04:53:07;;;;;;;4.20;2.40;;;10.60;99.90;;;;;;5017672;28;20237;-83
2021/05/17 04:55:33;;;;;;;3.90;1.90;;;10.60;99.90;;;;;;5016813;28;20560;-85
2021/05/17 04:57:58;;;;;;;2.40;2.20;;;10.70;99.90;;;;;;5012742;28;20202;-83
2021/05/17 05:00:24;;;;;;;3.07;2.20;;;10.70;99.90;;;;;;5032091;28;20243;-83
2021/05/17 05:02:49;;;;;;;2.40;2.17;;;10.80;99.90;;;;;;5019363;28;20194;-84
2021/05/17 05:05:15;;;;;;;2.23;2.03;;;10.90;99.90;;;;;;5004686;28;20184;-83
2021/05/17 05:07:41;;;;;;;3.77;2.10;;;10.90;99.90;;;;;;5019748;28;20225;-83
2021/05/17 05:10:07;;;;;;;4.00;2.30;;;10.90;99.90;;;;;;5017978;28;20278;-83
2021/05/17 05:12:33;;;;;;;3.50;2.03;;;10.90;99.90;;;;;;5017675;28;20187;-83
2021/05/17 05:14:58;;;;;;;2.73;2.00;;;10.90;99.90;;;;;;5017111;28;20193;-83
2021/05/17 05:17:24;;;;;;;2.43;2.17;;;10.90;99.90;;;;;;5013657;28;20205;-83
2021/05/17 05:19:49;;;;;;;2.43;2.00;;;10.90;99.90;;;;;;5017329;28;20183;-83
2021/05/17 05:22:15;;;;;;;2.67;2.13;;;10.90;99.90;;;;;;5016262;28;20209;-85
2021/05/17 05:24:41;;;;;;;2.83;2.17;;;10.90;99.90;;;;;;5012555;28;20636;-83
2021/05/17 05:34:51;;;;;;;3.00;2.23;;;11.10;99.90;;;;;;5030604;28;20191;-84
2021/05/17 05:37:17;;;;;;;3.37;2.40;;;11.20;99.90;;;;;;5022831;28;20199;-84
2021/05/17 05:39:43;;;;;;;4.10;2.47;;;11.30;99.90;;;;;;5013854;28;20191;-83
2021/05/17 05:42:09;;;;;;;4.67;2.53;;;11.30;99.90;;;;;;5011904;28;20190;-83
2021/05/17 05:44:48;;;;;;;3.67;2.43;;;11.30;99.70;;;;;;5014639;28;20285;-84
2021/05/17 05:47:16;;;;;;;3.57;2.37;;;11.30;99.70;;;;;;5024543;28;20191;-84
2021/05/17 05:49:47;;;;;;;3.57;2.10;;;11.40;99.60;;;;;;5012007;28;20200;-84
2021/05/17 05:52:13;;;;;;;2.97;2.13;;;11.50;99.10;;;;;;5010882;28;20207;-84
2021/05/17 05:54:39;;;;;;;2.70;2.43;;;11.60;98.60;;;;;;5015278;28;20191;-83
2021/05/17 05:57:07;;;;;;;4.47;2.13;;;11.70;98.00;;;;;;5016260;28;20196;-83
2021/05/17 05:59:33;;;;;;;4.53;2.40;;;11.70;97.80;;;;;;5019328;28;20206;-84
2021/05/17 06:01:59;;;;;;;1.93;1.83;;;11.80;97.70;;;;;;5016127;28;20559;-83
2021/05/17 06:04:24;;;;;;;3.83;2.23;;;12.50;97.50;;;;;;5010448;28;20197;-83
2021/05/17 06:06:50;;;;;;;3.73;1.83;;;11.80;96.90;;;;;;5020558;28;20658;-83
2021/05/17 06:09:16;;;;;;;2.40;1.70;;;11.90;97.20;;;;;;5020391;28;20198;-83
2021/05/17 06:11:42;;;;;;;2.30;2.10;;;11.90;96.60;;;;;;5037881;28;20313;-84
2021/05/17 06:14:08;;;;;;;3.87;1.73;;;11.80;96.60;;;;;;5021096;28;20192;-84
2021/05/17 06:16:35;;;;;;;3.50;2.07;;;;;;;;;;5020443;28;20191;-84
2021/05/17 06:19:01;;;;;;;1.50;1.27;;;11.80;96.60;;;;;;5022017;28;20187;-85
2021/05/17 06:21:28;;;;;;;2.77;1.70;;;11.80;96.50;;;;;;5022340;28;20643;-84
2021/05/17 06:23:56;;;;;;;2.33;1.80;;;11.70;96.70;;;;;;5037024;28;20179;-84
2021/05/17 06:26:22;;;;;;;2.57;2.07;;;11.80;97.60;;;;;;5023555;28;20226;-84
2021/05/17 06:28:48;;;;;;;2.63;1.70;;;11.70;97.50;;;;;;5011684;28;20201;-84
2021/05/17 06:31:15;;;;;;;1.87;1.70;;;;;;;;;;5009819;28;23397;-85
2021/05/17 06:33:42;;;;;;;3.73;2.20;;;11.60;98.40;;;;;;5016186;28;20226;-85
2021/05/17 06:36:12;;;;;;;4.53;3.00;;;11.50;98.80;;;;;;5012257;28;20191;-86
2021/05/17 06:38:40;;;;;;;2.57;1.90;;;11.60;99.40;;;;;;5015578;28;20215;-85
2021/05/17 06:41:10;;;;;;;4.63;2.10;;;11.70;99.90;;;;;;5025794;28;20230;-84
2021/05/17 06:43:37;;;;;;;2.43;1.83;;;11.90;99.10;;;;;;5017992;28;20202;-84
2021/05/17 06:46:04;;;;;;;3.83;2.60;;;12.00;99.00;;;;;;5001493;28;20620;-87
2021/05/17 06:48:30;;;;;;;2.07;1.87;;;12.00;99.20;;;;;;5017841;28;20223;-83
2021/05/17 06:50:56;;;;;;;2.13;1.93;;;12.10;98.40;;;;;;5019656;28;20219;-84
2021/05/17 06:53:24;;;;;;;2.70;1.73;;;12.10;97.70;;;;;;5034602;28;20243;-84
2021/05/17 06:58:25;;;;;;;2.77;1.80;;;12.10;96.20;;;;;;5045236;28;20187;-84
2021/05/17 07:00:53;;;;;;;2.43;1.67;;;12.30;96.80;;;;;;5043474;28;20206;-85
2021/05/17 07:03:20;;;;;;;2.17;1.93;;;12.90;93.90;;;;;;5034695;28;20192;-84
2021/05/17 07:05:47;;;;;;;1.87;1.57;;;12.90;94.10;;;;;;5017131;28;20192;-84
2021/05/17 07:13:26;;;;;;;1.60;1.30;;;13.10;90.40;;;;;;5032309;28;20197;-82
2021/05/17 07:15:52;;;;;;;3.80;1.27;;;13.10;90.70;;;;;;5017697;28;20184;-81
2021/05/17 07:18:17;;;;;;;2.10;1.40;;;13.20;91.40;;;;;;5023264;28;20184;-78
2021/05/17 07:26:00;;;;;;;1.60;1.50;;;13.10;87.50;;;;;;5037790;28;20318;-84
2021/05/17 07:28:26;;;;;;;3.67;1.30;;;13.20;87.60;;;;;;5021464;28;20193;-82
2021/05/17 07:30:53;;;;;;;1.63;1.33;;;13.20;86.00;;;;;;5015332;28;20207;-82
2021/05/17 07:33:19;;;;;;;2.03;1.83;;;13.20;85.70;;;;;;5024478;28;20289;-82
2021/05/17 07:35:45;;;;;;;9.97;1.80;;;13.20;87.10;;;;;;5017698;28;20201;-82
2021/05/17 07:38:10;;;;;;;1.97;1.53;;;13.50;87.60;;;;;;5020037;28;20242;-83
2021/05/17 07:40:36;;;;;;;1.70;1.60;;;13.90;84.10;;;;;;5031589;28;20488;-83
2021/05/17 07:43:06;;;;;;;4.40;1.53;;;14.30;77.70;;;;;;5018342;28;20212;-83
2021/05/17 07:45:38;;;;;;;4.10;1.50;;;14.30;77.00;;;;;;5025130;28;20248;-83
2021/05/17 07:48:04;;;;;;;2.00;1.50;;;14.30;78.30;;;;;;5022333;28;20195;-83
2021/05/17 07:50:39;;;;;;;3.27;1.33;;;14.30;76.20;;;;;;5020000;28;20216;-81
2021/05/17 07:53:05;;;;;;;1.63;1.13;;;14.30;76.90;;;;;;5017978;28;20464;-83
2021/05/17 07:55:30;;;;;;;2.07;1.17;;;14.30;78.00;;;;;;5020211;28;20238;-83
2021/05/17 07:57:56;;;;;;;3.03;1.70;;;14.10;79.10;;;;;;5036858;28;20330;-83
2021/05/17 08:00:22;;;;;;;2.33;1.00;;;13.90;75.20;;;;;;5022419;28;20201;-85
2021/05/17 08:02:47;;;;;;;3.83;1.80;;;13.50;76.30;;;;;;5015996;28;20200;-82
2021/05/17 08:05:13;;;;;;;3.73;1.30;;;13.40;78.40;;;;;;5020550;28;20183;-83
2021/05/17 08:07:39;;;;;;;3.50;1.40;;;;;;;;;;5020431;28;20600;-83
2021/05/17 08:10:08;;;;;;;1.90;1.37;;;13.20;84.70;;;;;;5015978;28;22427;-83
2021/05/17 08:12:35;;;;;;;4.20;1.20;;;13.10;83.90;;;;;;5014125;28;20201;-84
2021/05/17 08:15:04;;;;;;;3.80;1.20;;;13.00;80.60;;;;;;5015369;28;20232;-84
2021/05/17 08:17:30;;;;;;;2.70;1.50;;;13.10;78.70;;;;;;5031420;28;20784;-83
2021/05/17 08:19:56;;;;;;;2.20;1.43;;;13.00;80.20;;;;;;5004091;28;20285;-84
2021/05/17 08:22:22;;;;;;;3.73;1.20;;;13.00;81.70;;;;;;5015995;28;20877;-83
2021/05/17 08:24:48;;;;;;;1.77;1.33;;;13.10;80.10;;;;;;5018677;28;20207;-85
2021/05/17 08:27:13;;;;;;;4.63;1.60;;;13.20;79.70;;;;;;5014147;28;20188;-83
2021/05/17 08:29:39;;;;;;;4.13;1.50;;;;;;;;;;5019837;28;20222;-83
2021/05/17 08:32:10;;;;;;;3.60;1.60;;;13.40;76.80;;;;;;5016048;28;20637;-82
2021/05/17 08:34:37;;;;;;;2.17;1.13;;;13.50;74.80;;;;;;5014713;28;20263;-83
2021/05/17 08:37:03;;;;;;;3.13;1.40;;;13.30;76.00;;;;;;5036492;28;20201;-83
2021/05/17 08:39:29;;;;;;;2.70;1.43;;;13.20;77.20;;;;;;4999571;28;20246;-83
2021/05/17 08:42:01;;;;;;;3.40;1.33;;;13.20;79.70;;;;;;4973377;28;20297;-84
2021/05/17 08:44:28;;;;;;;1.63;1.33;;;13.10;80.70;;;;;;4975200;28;20259;-82
2021/05/17 08:46:55;;;;;;;3.83;1.73;;;13.20;78.80;;;;;;4998275;28;20286;-82
2021/05/17 08:49:21;;;;;;;1.77;1.60;;;13.20;78.30;;;;;;4975530;28;20251;-83
2021/05/17 08:51:48;;;;;;;1.73;1.40;;;13.60;77.10;;;;;;4984139;28;20240;-82
2021/05/17 08:54:14;;;;;;;5.63;1.50;;;;;;;;;;4984523;28;20677;-83
2021/05/17 08:56:43;;;;;;;3.17;1.10;;;14.70;75.20;;;;;;4978679;28;20188;-83
2021/05/17 08:59:11;;;;;;;2.73;1.13;;;14.90;73.60;;;;;;4983098;28;20191;-83
2021/05/17 09:01:37;;;;;;;1.90;1.53;;;;;;;;;;4995021;28;20252;-83
2021/05/17 09:04:11;;;;;;;2.97;1.30;;;15.30;66.90;;;;;;4993316;28;20200;-82
2021/05/17 09:06:47;;;;;;;1.17;1.00;;;15.20;65.40;;;;;;4976443;28;20219;-83
2021/05/17 09:09:27;;;;;;;6.93;1.83;;;15.30;65.20;;;;;;5000636;28;20286;-84
2021/05/17 09:11:58;;;;;;;3.03;1.13;;;15.40;63.80;;;;;;5015576;28;20214;-83
2021/05/17 09:14:25;;;;;;;1.90;0.90;;;15.60;62.00;;;;;;5022779;28;20195;-84
2021/05/17 09:17:08;;;;;;;2.10;0.80;;;15.50;59.30;;;;;;5011561;28;20231;-83
2021/05/17 09:19:35;;;;;;;4.07;1.20;;;15.30;61.20;;;;;;5021176;28;20195;-83
2021/05/17 09:22:10;;;;;;;3.77;1.30;;;15.10;65.00;;;;;;5006808;28;20726;-83
2021/05/17 09:24:41;;;;;;;2.73;1.17;;;15.10;65.70;;;;;;5020697;28;20222;-82
2021/05/17 09:27:25;;;;;;;3.03;1.13;;;15.10;65.40;;;;;;5013946;28;20200;-84
2021/05/17 09:30:00;;;;;;;1.20;0.80;;;15.00;63.00;;;;;;5019160;28;20283;-83
2021/05/17 09:32:26;;;;;;;3.50;1.60;;;15.00;63.10;;;;;;5034170;28;20194;-83
2021/05/17 09:35:15;;;;;;;2.90;1.33;;;14.90;62.90;;;;;;5040830;28;20183;-84
2021/05/17 09:37:48;;;;;;;1.67;1.00;;;14.80;63.60;;;;;;5027058;28;20207;-83
2021/05/17 09:40:27;;;;;;;2.77;1.73;;;14.50;67.70;;;;;;5044399;28;20527;-82
2021/05/17 09:43:01;;;;;;;2.13;1.27;;;13.80;76.80;;;;;;5025395;28;20190;-83
2021/05/17 09:45:32;;;;;;;1.87;1.17;;;13.40;79.90;;;;;;5023878;28;20174;-83
2021/05/17 09:47:57;;;;;;;2.97;1.50;;;13.10;83.40;;;;;;5024825;28;20568;-83
2021/05/17 09:50:24;;;;;;;2.63;1.17;;;13.10;86.40;;;;;;5026248;28;20218;-81
2021/05/17 09:52:49;;;;;;;1.17;1.00;;;13.40;81.70;;;;;;5031334;28;20199;-82
2021/05/17 09:55:15;;;;;;;1.50;1.23;;;13.80;79.10;;;;;;5024293;28;20187;-82
2021/05/17 09:57:48;;;;;;;1.27;1.10;;;14.10;79.10;;;;;;5025949;28;20203;-82
2021/05/17 10:00:29;;;;;;;1.90;1.30;;;14.90;75.20;;;;;;5022706;28;20213;-83
2021/05/17 10:02:57;;;;;;;1.13;0.97;;;15.30;73.90;;;;;;5026363;28;20191;-82
2021/05/17 10:05:29;;;;;;;1.30;1.20;;;15.70;71.50;;;;;;5020211;28;20285;-85
2021/05/17 10:07:59;;;;;;;1.37;1.03;;;15.40;69.60;;;;;;5023991;28;20269;-85
2021/05/17 10:10:27;;;;;;;3.43;1.10;;;15.20;68.40;;;;;;5020721;28;20667;-84
2021/05/17 10:12:55;;;;;;;0.83;0.83;;;15.00;68.60;;;;;;5038658;28;20192;-84
2021/05/17 10:15:22;;;;;;;2.33;1.30;;;15.10;71.00;;;;;;5018121;28;20206;-84
2021/05/17 10:17:49;;;;;;;1.30;1.20;;;15.10;68.30;;;;;;5021368;28;20668;-84
2021/05/17 10:20:21;;;;;;;1.37;1.10;;;15.30;62.60;;;;;;5017053;28;20214;-83
2021/05/17 10:22:48;;;;;;;0.70;0.67;;;15.40;63.10;;;;;;5039736;28;20191;-83
2021/05/17 10:25:21;;;;;;;1.83;1.00;;;15.40;64.00;;;;;;5027397;28;20207;-84
2021/05/17 10:27:49;;;;;;;1.77;1.10;;;15.50;65.30;;;;;;5025316;28;20183;-83
2021/05/17 10:30:20;;;;;;;1.83;1.20;;;15.50;65.00;;;;;;5041459;28;20262;-83
2021/05/17 10:32:52;;;;;;;1.00;0.90;;;15.40;65.10;;;;;;5018659;28;20250;-83
2021/05/17 10:35:21;;;;;;;1.63;1.33;;;15.20;63.70;;;;;;5025386;28;20276;-83
2021/05/17 10:37:48;;;;;;;1.33;1.10;;;15.50;62.10;;;;;;5024556;28;20428;-84
2021/05/17 10:40:40;;;;;;;1.27;0.97;;;15.60;62.30;;;;;;5022522;28;20574;-84
2021/05/17 10:43:19;;;;;;;2.37;1.10;;;15.70;62.20;;;;;;5029960;28;20194;-82
2021/05/17 10:48:23;;;;;;;2.03;0.93;;;16.10;60.40;;;;;;5039336;28;20175;-84
2021/05/17 10:50:51;;;;;;;1.80;1.27;;;16.10;60.40;;;;;;5022620;28;20372;-84
2021/05/17 10:53:39;;;;;;;3.30;1.63;;;16.20;60.00;;;;;;5038336;28;20255;-85
2021/05/17 10:56:04;;;;;;;1.53;0.90;;;16.30;60.60;;;;;;5022295;28;20264;-83
2021/05/17 11:02:09;;;;;;;0.97;0.80;;;16.30;58.10;;;;;;5037567;28;20576;-82
2021/05/17 11:04:54;;;;;;;2.57;1.10;;;16.10;56.40;;;;;;5025374;28;20265;-84
2021/05/17 11:07:31;;;;;;;2.17;0.83;;;16.10;58.60;;;;;;5026652;28;20225;-84
2021/05/17 11:10:00;;;;;;;1.57;0.90;;;16.30;60.60;;;;;;5029398;28;20209;-82
2021/05/17 11:12:26;;;;;;;2.50;0.90;;;16.40;57.40;;;;;;5019657;28;20261;-82
2021/05/17 11:15:12;;;;;;;1.33;0.90;;;16.60;54.00;;;;;;5037540;28;20185;-84
2021/05/17 11:17:56;;;;;;;1.30;0.80;;;16.80;54.20;;;;;;5023185;28;20211;-84
2021/05/17 11:20:41;;;;;;;1.37;1.10;;;16.60;52.30;;;;;;5019129;28;20656;-85
2021/05/17 11:23:25;;;;;;;3.13;0.83;;;16.60;52.20;;;;;;5040099;28;20219;-83
2021/05/17 11:26:07;;;;;;;2.20;0.97;;;16.70;52.80;;;;;;5016953;28;20192;-82
2021/05/17 11:31:14;;;;;;;0.93;0.60;;;16.70;53.40;;;;;;5040356;28;20227;-82
2021/05/17 11:33:50;;;;;;;2.33;0.70;;;16.10;53.30;;;;;;5023687;28;20691;-81
2021/05/17 11:36:36;;;;;;;1.53;0.80;;;15.80;55.50;;;;;;5031577;28;20302;-80
2021/05/17 11:39:10;;;;;;;2.50;1.10;;;15.30;59.20;;;;;;5019501;28;20192;-82
2021/05/17 11:41:57;;;;;;;0.93;0.83;;;15.20;61.60;;;;;;5016770;28;20619;-82
2021/05/17 11:44:35;;;;;;;1.53;0.90;;;14.60;62.60;;;;;;5020988;28;20240;-82
2021/05/17 11:47:11;;;;;;;1.00;0.90;;;13.70;74.20;;;;;;5014789;28;20191;-82
2021/05/17 11:49:42;;;;;;;2.00;1.10;;;13.50;76.60;;;;;;5023949;28;20199;-82
2021/05/17 11:52:14;;;;;;;0.80;0.80;;;13.00;77.40;;;;;;5018449;28;20676;-80
2021/05/17 11:54:48;;;;;;;1.43;1.03;;;12.80;83.00;;;;;;5018298;28;20198;-83
2021/05/17 11:57:14;;;;;;;1.30;1.07;;;12.70;87.10;;;;;;5021461;28;20187;-81
2021/05/17 11:59:40;;;;;;;1.13;0.80;;;12.60;86.70;;;;;;5024644;28;20188;-81
2021/05/17 12:02:10;;;;;;;1.27;1.07;;;12.70;90.70;;;;;;5030281;28;20210;-82
2021/05/17 12:04:37;;;;;;;2.27;1.27;;;12.70;90.50;;;;;;5017337;28;20211;-81
2021/05/17 12:07:12;;;;;;;3.60;1.37;;;12.80;86.70;;;;;;5027205;28;20200;-81
2021/05/17 12:09:42;;;;;;;3.03;1.00;;;12.90;89.60;;;;;;5023359;28;20201;-80
2021/05/17 12:12:19;;;;;;;1.90;1.20;;;13.50;90.40;;;;;;5018064;28;20238;-79
2021/05/17 12:14:48;;;;;;;1.30;0.63;;;13.20;90.50;;;;;;5033906;28;20195;-81
2021/05/17 12:17:18;;;;;;;0.70;0.70;;;14.40;83.90;;;;;;5023190;28;20227;-80
2021/05/17 12:19:49;;;;;;;0.70;0.70;;;15.20;83.10;;;;;;5013644;28;20207;-79
2021/05/17 12:22:23;;;;;;;2.47;0.87;;;17.40;63.30;;;;;;5014982;28;20194;-80
2021/05/17 12:24:50;;;;;;;0.80;0.80;;;17.60;61.30;;;;;;5018115;28;20198;-79
2021/05/17 12:27:18;;;;;;;0.73;0.73;;;;;;;;;;5036790;28;20210;-81
2021/05/17 12:29:52;;;;;;;0.73;0.50;;;20.10;55.40;;;;;;5021034;28;20700;-78
2021/05/17 12:32:21;;;;;;;1.70;1.30;;;21.60;49.60;;;;;;5027650;28;20222;-80
2021/05/17 12:34:59;;;;;;;0.80;0.70;;;21.90;46.80;;;;;;5020842;28;20188;-80
2021/05/17 12:37:31;;;;;;;1.53;1.43;;;21.80;48.80;;;;;;5040221;28;20204;-81
2021/05/17 12:40:23;;;;;;;1.07;0.60;;;21.80;49.30;;;;;;5018040;28;20241;-82
2021/05/17 12:43:04;;;;;;;1.60;0.50;;;20.90;45.10;;;;;;5017941;28;20186;-82
2021/05/17 12:45:31;;;;;;;2.30;0.70;;;;;;;;;;5015598;28;20244;-84
2021/05/17 12:47:56;;;;;;;3.13;0.93;;;17.60;58.00;;;;;;5026033;28;20250;-84
2021/05/17 12:50:22;;;;;;;1.80;0.70;;;;;;;;;;5040953;28;20242;-84
2021/05/17 12:53:00;;;;;;;0.97;0.60;;;16.10;62.60;;;;;;5017686;28;20743;-83
2021/05/17 12:55:26;;;;;;;1.33;0.77;;;;;;;;;;5026085;28;20209;-83
2021/05/17 12:57:56;;;;;;;0.97;0.90;;;18.00;61.60;;;;;;5025265;28;20215;-84
2021/05/17 13:00:37;;;;;;;2.43;1.07;;;20.30;56.60;;;;;;5021930;28;20195;-85
2021/05/17 13:03:03;;;;;;;2.57;0.83;;;;;;;;;;5015958;28;20232;-84
2021/05/17 13:05:50;;;;;;;0.57;0.50;;;21.60;46.30;;;;;;5024071;28;20233;-83
2021/05/17 13:08:16;;;;;;;0.50;0.50;;;;;;;;;;5032727;28;20293;-83
2021/05/17 13:10:54;;;;;;;1.77;0.63;;;20.20;48.30;;;;;;5021033;28;20229;-82
2021/05/17 13:13:20;;;;;;;0.50;0.40;;;20.20;49.10;;;;;;5015955;28;21821;-84
2021/05/17 13:16:00;;;;;;;0.43;0.43;;;21.30;46.00;;;;;;5024464;28;20188;-83
2021/05/17 13:18:31;;;;;;;2.57;0.80;;;22.30;43.90;;;;;;5019282;28;20262;-83
2021/05/17 13:21:35;;;;;;;0.67;0.53;;;22.60;41.80;;;;;;5027616;28;20201;-83
2021/05/17 13:24:55;;;;;;;2.63;0.97;;;21.40;41.80;;;;;;5026940;28;20560;-83
2021/05/17 13:30:14;;;;;;;2.63;1.30;;;20.40;44.50;;;;;;5046745;28;20312;-83
2021/05/17 13:32:42;;;;;;;0.50;0.50;;;19.60;45.40;;;;;;5040485;28;20258;-83
2021/05/17 13:35:11;;;;;;;1.07;0.63;;;19.00;48.50;;;;;;5026083;28;20179;-82
2021/05/17 13:37:37;;;;;;;1.10;0.70;;;18.30;50.30;;;;;;5027177;28;20184;-83
2021/05/17 13:40:06;;;;;;;3.77;1.00;;;17.40;51.40;;;;;;5024906;28;20182;-85
2021/05/17 13:42:32;;;;;;;0.60;0.50;;;17.10;53.00;;;;;;5043475;28;20186;-85
2021/05/17 13:44:58;;;;;;;1.67;0.67;;;;;;;;;;5026607;28;20198;-83
2021/05/17 13:47:24;;;;;;;2.60;0.80;;;14.80;65.50;;;;;;5023892;28;20179;-85